sensor_id;sensor_type;location;lat;lon;timestamp;P1;durP1;ratioP1;P2;durP2;ratioP2
60014;SDS011;45867;52.480;6.056;2023-04-15T00:00:11;13.13;;;5.85;;
60014;SDS011;45867;52.480;6.056;2023-04-15T00:02:37;10.75;;;6.32;;
60014;SDS011;45867;52.480;6.056;2023-04-15T00:05:03;11.05;;;5.90;;
60014;SDS011;45867;52.480;6.056;2023-04-15T00:07:29;13.98;;;6.38;;
60014;SDS011;45867;52.480;6.056;2023-04-15T00:09:55;10.82;;;5.90;;
60014;SDS011;45867;52.480;6.056;2023-04-15T00:12:22;11.45;;;5.97;;
60014;SDS011;45867;52.480;6.056;2023-04-15T00:14:54;12.55;;;6.10;;
60014;SDS011;45867;52.480;6.056;2023-04-15T00:17:21;12.45;;;5.95;;
60014;SDS011;45867;52.480;6.056;2023-04-15T00:19:46;13.10;;;6.18;;
60014;SDS011;45867;52.480;6.056;2023-04-15T00:22:12;14.00;;;6.68;;
60014;SDS011;45867;52.480;6.056;2023-04-15T00:24:38;15.98;;;6.00;;
60014;SDS011;45867;52.480;6.056;2023-04-15T00:27:03;12.40;;;5.88;;
60014;SDS011;45867;52.480;6.056;2023-04-15T00:29:29;12.45;;;6.28;;
60014;SDS011;45867;52.480;6.056;2023-04-15T00:31:55;14.98;;;6.38;;
60014;SDS011;45867;52.480;6.056;2023-04-15T00:34:23;10.98;;;6.03;;
60014;SDS011;45867;52.480;6.056;2023-04-15T00:36:51;11.32;;;5.43;;
60014;SDS011;45867;52.480;6.056;2023-04-15T00:39:17;14.55;;;5.80;;
60014;SDS011;45867;52.480;6.056;2023-04-15T00:41:43;8.88;;;5.85;;
60014;SDS011;45867;52.480;6.056;2023-04-15T00:44:09;11.70;;;6.40;;
60014;SDS011;45867;52.480;6.056;2023-04-15T00:46:35;8.85;;;5.57;;
60014;SDS011;45867;52.480;6.056;2023-04-15T00:49:05;14.05;;;6.13;;
60014;SDS011;45867;52.480;6.056;2023-04-15T00:51:32;17.38;;;5.72;;
60014;SDS011;45867;52.480;6.056;2023-04-15T00:54:00;11.80;;;5.63;;
60014;SDS011;45867;52.480;6.056;2023-04-15T00:56:26;15.32;;;5.90;;
60014;SDS011;45867;52.480;6.056;2023-04-15T00:58:53;9.48;;;5.90;;
60014;SDS011;45867;52.480;6.056;2023-04-15T01:01:22;15.82;;;6.10;;
60014;SDS011;45867;52.480;6.056;2023-04-15T01:03:49;13.57;;;5.88;;
60014;SDS011;45867;52.480;6.056;2023-04-15T01:06:15;11.63;;;5.63;;
60014;SDS011;45867;52.480;6.056;2023-04-15T01:08:41;13.02;;;5.70;;
60014;SDS011;45867;52.480;6.056;2023-04-15T01:11:07;13.90;;;6.15;;
60014;SDS011;45867;52.480;6.056;2023-04-15T01:13:34;12.77;;;5.80;;
60014;SDS011;45867;52.480;6.056;2023-04-15T01:16:00;12.45;;;6.22;;
60014;SDS011;45867;52.480;6.056;2023-04-15T01:18:27;10.65;;;5.82;;
60014;SDS011;45867;52.480;6.056;2023-04-15T01:20:52;17.98;;;6.32;;
60014;SDS011;45867;52.480;6.056;2023-04-15T01:23:18;9.48;;;5.82;;
60014;SDS011;45867;52.480;6.056;2023-04-15T01:25:46;14.40;;;6.20;;
60014;SDS011;45867;52.480;6.056;2023-04-15T01:28:13;8.68;;;5.38;;
60014;SDS011;45867;52.480;6.056;2023-04-15T01:30:38;19.73;;;6.38;;
60014;SDS011;45867;52.480;6.056;2023-04-15T01:33:04;11.75;;;6.28;;
60014;SDS011;45867;52.480;6.056;2023-04-15T01:35:29;13.40;;;6.18;;
60014;SDS011;45867;52.480;6.056;2023-04-15T01:37:54;16.65;;;6.35;;
60014;SDS011;45867;52.480;6.056;2023-04-15T01:40:29;12.45;;;5.70;;
60014;SDS011;45867;52.480;6.056;2023-04-15T01:42:54;11.20;;;6.68;;
60014;SDS011;45867;52.480;6.056;2023-04-15T01:45:20;16.85;;;6.47;;
60014;SDS011;45867;52.480;6.056;2023-04-15T01:47:45;15.15;;;6.85;;
60014;SDS011;45867;52.480;6.056;2023-04-15T01:50:11;13.57;;;6.20;;
60014;SDS011;45867;52.480;6.056;2023-04-15T01:52:37;13.70;;;6.57;;
60014;SDS011;45867;52.480;6.056;2023-04-15T01:55:02;11.45;;;6.53;;
60014;SDS011;45867;52.480;6.056;2023-04-15T01:57:28;14.57;;;6.90;;
60014;SDS011;45867;52.480;6.056;2023-04-15T01:59:53;16.40;;;7.10;;
60014;SDS011;45867;52.480;6.056;2023-04-15T02:02:18;10.45;;;6.07;;
60014;SDS011;45867;52.480;6.056;2023-04-15T02:04:44;10.57;;;6.45;;
60014;SDS011;45867;52.480;6.056;2023-04-15T02:07:09;15.98;;;6.47;;
60014;SDS011;45867;52.480;6.056;2023-04-15T02:09:34;10.50;;;6.45;;
60014;SDS011;45867;52.480;6.056;2023-04-15T02:12:00;11.98;;;6.97;;
60014;SDS011;45867;52.480;6.056;2023-04-15T02:14:27;16.35;;;7.03;;
60014;SDS011;45867;52.480;6.056;2023-04-15T02:16:52;13.50;;;7.43;;
60014;SDS011;45867;52.480;6.056;2023-04-15T02:19:17;15.38;;;6.63;;
60014;SDS011;45867;52.480;6.056;2023-04-15T02:21:42;12.43;;;7.05;;
60014;SDS011;45867;52.480;6.056;2023-04-15T02:24:08;18.58;;;6.90;;
60014;SDS011;45867;52.480;6.056;2023-04-15T02:26:33;12.32;;;6.82;;
60014;SDS011;45867;52.480;6.056;2023-04-15T02:28:59;16.48;;;7.07;;
60014;SDS011;45867;52.480;6.056;2023-04-15T02:31:24;15.32;;;7.53;;
60014;SDS011;45867;52.480;6.056;2023-04-15T02:33:50;12.25;;;7.28;;
60014;SDS011;45867;52.480;6.056;2023-04-15T02:36:16;14.65;;;7.75;;
60014;SDS011;45867;52.480;6.056;2023-04-15T02:38:41;13.23;;;7.40;;
60014;SDS011;45867;52.480;6.056;2023-04-15T02:41:08;13.48;;;7.63;;
60014;SDS011;45867;52.480;6.056;2023-04-15T02:43:34;16.40;;;7.60;;
60014;SDS011;45867;52.480;6.056;2023-04-15T02:45:59;14.07;;;7.57;;
60014;SDS011;45867;52.480;6.056;2023-04-15T02:48:25;13.10;;;7.93;;
60014;SDS011;45867;52.480;6.056;2023-04-15T02:50:51;13.98;;;7.85;;
60014;SDS011;45867;52.480;6.056;2023-04-15T02:53:16;15.60;;;7.82;;
60014;SDS011;45867;52.480;6.056;2023-04-15T02:55:41;18.13;;;7.95;;
60014;SDS011;45867;52.480;6.056;2023-04-15T02:58:07;14.48;;;8.10;;
60014;SDS011;45867;52.480;6.056;2023-04-15T03:00:32;11.90;;;7.28;;
60014;SDS011;45867;52.480;6.056;2023-04-15T03:02:59;14.80;;;8.13;;
60014;SDS011;45867;52.480;6.056;2023-04-15T03:05:26;17.60;;;8.02;;
60014;SDS011;45867;52.480;6.056;2023-04-15T03:07:52;16.58;;;8.50;;
60014;SDS011;45867;52.480;6.056;2023-04-15T03:10:17;20.52;;;9.27;;
60014;SDS011;45867;52.480;6.056;2023-04-15T03:12:43;15.68;;;8.90;;
60014;SDS011;45867;52.480;6.056;2023-04-15T03:15:08;12.73;;;8.27;;
60014;SDS011;45867;52.480;6.056;2023-04-15T03:17:34;15.73;;;8.30;;
60014;SDS011;45867;52.480;6.056;2023-04-15T03:20:02;16.75;;;8.75;;
60014;SDS011;45867;52.480;6.056;2023-04-15T03:22:29;14.88;;;8.52;;
60014;SDS011;45867;52.480;6.056;2023-04-15T03:24:55;19.77;;;9.35;;
60014;SDS011;45867;52.480;6.056;2023-04-15T03:27:21;12.88;;;8.98;;
60014;SDS011;45867;52.480;6.056;2023-04-15T03:29:46;18.88;;;9.70;;
60014;SDS011;45867;52.480;6.056;2023-04-15T03:32:12;19.40;;;10.77;;
60014;SDS011;45867;52.480;6.056;2023-04-15T03:34:39;17.33;;;9.57;;
60014;SDS011;45867;52.480;6.056;2023-04-15T03:37:04;15.73;;;9.43;;
60014;SDS011;45867;52.480;6.056;2023-04-15T03:39:30;17.83;;;10.23;;
60014;SDS011;45867;52.480;6.056;2023-04-15T03:41:55;18.92;;;9.48;;
60014;SDS011;45867;52.480;6.056;2023-04-15T03:44:21;18.15;;;10.10;;
60014;SDS011;45867;52.480;6.056;2023-04-15T03:46:47;20.77;;;10.68;;
60014;SDS011;45867;52.480;6.056;2023-04-15T03:49:12;19.23;;;9.80;;
60014;SDS011;45867;52.480;6.056;2023-04-15T03:51:38;19.10;;;10.00;;
60014;SDS011;45867;52.480;6.056;2023-04-15T03:54:03;20.10;;;10.40;;
60014;SDS011;45867;52.480;6.056;2023-04-15T03:56:28;18.20;;;10.88;;
60014;SDS011;45867;52.480;6.056;2023-04-15T03:58:54;18.55;;;11.00;;
60014;SDS011;45867;52.480;6.056;2023-04-15T04:01:19;23.02;;;11.25;;
60014;SDS011;45867;52.480;6.056;2023-04-15T04:03:45;20.65;;;11.57;;
60014;SDS011;45867;52.480;6.056;2023-04-15T04:06:10;22.75;;;11.23;;
60014;SDS011;45867;52.480;6.056;2023-04-15T04:08:36;21.10;;;11.18;;
60014;SDS011;45867;52.480;6.056;2023-04-15T04:11:02;19.17;;;11.27;;
60014;SDS011;45867;52.480;6.056;2023-04-15T04:13:27;17.15;;;11.35;;
60014;SDS011;45867;52.480;6.056;2023-04-15T04:15:55;21.40;;;11.88;;
60014;SDS011;45867;52.480;6.056;2023-04-15T04:18:21;20.42;;;11.32;;
60014;SDS011;45867;52.480;6.056;2023-04-15T04:20:46;19.35;;;11.40;;
60014;SDS011;45867;52.480;6.056;2023-04-15T04:23:13;20.50;;;12.20;;
60014;SDS011;45867;52.480;6.056;2023-04-15T04:25:38;25.15;;;11.82;;
60014;SDS011;45867;52.480;6.056;2023-04-15T04:28:03;21.27;;;12.32;;
60014;SDS011;45867;52.480;6.056;2023-04-15T04:30:29;23.05;;;11.73;;
60014;SDS011;45867;52.480;6.056;2023-04-15T04:32:54;19.05;;;11.43;;
60014;SDS011;45867;52.480;6.056;2023-04-15T04:35:19;20.77;;;11.40;;
60014;SDS011;45867;52.480;6.056;2023-04-15T04:37:45;20.17;;;11.77;;
60014;SDS011;45867;52.480;6.056;2023-04-15T04:40:11;21.05;;;11.77;;
60014;SDS011;45867;52.480;6.056;2023-04-15T04:42:37;25.65;;;12.57;;
60014;SDS011;45867;52.480;6.056;2023-04-15T04:45:02;18.67;;;11.27;;
60014;SDS011;45867;52.480;6.056;2023-04-15T04:47:27;20.58;;;11.32;;
60014;SDS011;45867;52.480;6.056;2023-04-15T04:49:54;21.67;;;11.77;;
60014;SDS011;45867;52.480;6.056;2023-04-15T04:52:19;22.02;;;11.75;;
60014;SDS011;45867;52.480;6.056;2023-04-15T04:54:44;19.80;;;11.77;;
60014;SDS011;45867;52.480;6.056;2023-04-15T04:57:10;20.27;;;11.60;;
60014;SDS011;45867;52.480;6.056;2023-04-15T04:59:39;19.00;;;11.40;;
60014;SDS011;45867;52.480;6.056;2023-04-15T05:02:05;23.10;;;12.57;;
60014;SDS011;45867;52.480;6.056;2023-04-15T05:04:31;16.65;;;11.07;;
60014;SDS011;45867;52.480;6.056;2023-04-15T05:06:56;22.23;;;11.88;;
60014;SDS011;45867;52.480;6.056;2023-04-15T05:09:23;20.55;;;11.85;;
60014;SDS011;45867;52.480;6.056;2023-04-15T05:11:48;22.35;;;12.00;;
60014;SDS011;45867;52.480;6.056;2023-04-15T05:14:14;17.90;;;11.60;;
60014;SDS011;45867;52.480;6.056;2023-04-15T05:16:39;23.65;;;12.35;;
60014;SDS011;45867;52.480;6.056;2023-04-15T05:19:05;19.83;;;11.18;;
60014;SDS011;45867;52.480;6.056;2023-04-15T05:21:31;21.15;;;11.27;;
60014;SDS011;45867;52.480;6.056;2023-04-15T05:23:57;22.60;;;11.63;;
60014;SDS011;45867;52.480;6.056;2023-04-15T05:26:22;20.50;;;11.65;;
60014;SDS011;45867;52.480;6.056;2023-04-15T05:28:48;24.55;;;11.80;;
60014;SDS011;45867;52.480;6.056;2023-04-15T05:31:13;18.98;;;11.70;;
60014;SDS011;45867;52.480;6.056;2023-04-15T05:33:39;21.60;;;12.18;;
60014;SDS011;45867;52.480;6.056;2023-04-15T05:36:04;27.58;;;12.88;;
60014;SDS011;45867;52.480;6.056;2023-04-15T05:38:30;23.40;;;12.52;;
60014;SDS011;45867;52.480;6.056;2023-04-15T05:40:55;21.00;;;12.05;;
60014;SDS011;45867;52.480;6.056;2023-04-15T05:43:23;24.65;;;12.43;;
60014;SDS011;45867;52.480;6.056;2023-04-15T05:45:52;25.80;;;12.90;;
60014;SDS011;45867;52.480;6.056;2023-04-15T05:48:18;22.10;;;12.25;;
60014;SDS011;45867;52.480;6.056;2023-04-15T05:50:43;22.15;;;12.13;;
60014;SDS011;45867;52.480;6.056;2023-04-15T05:53:08;21.30;;;12.90;;
60014;SDS011;45867;52.480;6.056;2023-04-15T05:55:34;19.90;;;12.18;;
60014;SDS011;45867;52.480;6.056;2023-04-15T05:57:59;22.45;;;11.73;;
60014;SDS011;45867;52.480;6.056;2023-04-15T06:00:25;20.98;;;11.40;;
60014;SDS011;45867;52.480;6.056;2023-04-15T06:02:50;17.77;;;10.63;;
60014;SDS011;45867;52.480;6.056;2023-04-15T06:05:16;17.23;;;10.77;;
60014;SDS011;45867;52.480;6.056;2023-04-15T06:07:42;15.85;;;9.57;;
60014;SDS011;45867;52.480;6.056;2023-04-15T06:10:08;18.38;;;11.05;;
60014;SDS011;45867;52.480;6.056;2023-04-15T06:12:33;18.13;;;9.60;;
60014;SDS011;45867;52.480;6.056;2023-04-15T06:14:59;18.77;;;10.18;;
60014;SDS011;45867;52.480;6.056;2023-04-15T06:17:24;16.58;;;9.10;;
60014;SDS011;45867;52.480;6.056;2023-04-15T06:19:50;16.98;;;10.55;;
60014;SDS011;45867;52.480;6.056;2023-04-15T06:22:19;16.23;;;9.75;;
60014;SDS011;45867;52.480;6.056;2023-04-15T06:24:48;18.45;;;9.85;;
60014;SDS011;45867;52.480;6.056;2023-04-15T06:27:19;16.00;;;9.98;;
60014;SDS011;45867;52.480;6.056;2023-04-15T06:29:47;17.15;;;9.93;;
60014;SDS011;45867;52.480;6.056;2023-04-15T06:32:12;21.02;;;9.70;;
60014;SDS011;45867;52.480;6.056;2023-04-15T06:34:37;20.13;;;10.23;;
60014;SDS011;45867;52.480;6.056;2023-04-15T06:37:03;19.50;;;9.50;;
60014;SDS011;45867;52.480;6.056;2023-04-15T06:39:28;16.85;;;10.20;;
60014;SDS011;45867;52.480;6.056;2023-04-15T06:41:54;17.27;;;10.38;;
60014;SDS011;45867;52.480;6.056;2023-04-15T06:44:20;19.20;;;10.25;;
60014;SDS011;45867;52.480;6.056;2023-04-15T06:46:45;19.83;;;10.13;;
60014;SDS011;45867;52.480;6.056;2023-04-15T06:49:11;16.48;;;9.55;;
60014;SDS011;45867;52.480;6.056;2023-04-15T06:51:36;18.02;;;10.15;;
60014;SDS011;45867;52.480;6.056;2023-04-15T06:54:02;17.38;;;9.35;;
60014;SDS011;45867;52.480;6.056;2023-04-15T06:56:30;16.80;;;8.23;;
60014;SDS011;45867;52.480;6.056;2023-04-15T06:58:56;13.75;;;8.63;;
60014;SDS011;45867;52.480;6.056;2023-04-15T07:01:21;14.35;;;8.70;;
60014;SDS011;45867;52.480;6.056;2023-04-15T07:03:47;15.20;;;8.52;;
60014;SDS011;45867;52.480;6.056;2023-04-15T07:06:12;13.60;;;7.88;;
60014;SDS011;45867;52.480;6.056;2023-04-15T07:08:38;14.55;;;8.00;;
60014;SDS011;45867;52.480;6.056;2023-04-15T07:11:03;13.20;;;7.35;;
60014;SDS011;45867;52.480;6.056;2023-04-15T07:13:29;15.13;;;8.07;;
60014;SDS011;45867;52.480;6.056;2023-04-15T07:15:56;15.05;;;7.50;;
60014;SDS011;45867;52.480;6.056;2023-04-15T07:18:21;11.20;;;7.03;;
60014;SDS011;45867;52.480;6.056;2023-04-15T07:20:47;14.18;;;7.13;;
60014;SDS011;45867;52.480;6.056;2023-04-15T07:23:12;11.32;;;6.75;;
60014;SDS011;45867;52.480;6.056;2023-04-15T07:25:38;10.82;;;7.20;;
60014;SDS011;45867;52.480;6.056;2023-04-15T07:28:03;10.98;;;6.75;;
60014;SDS011;45867;52.480;6.056;2023-04-15T07:30:28;16.50;;;6.88;;
60014;SDS011;45867;52.480;6.056;2023-04-15T07:32:54;9.07;;;5.95;;
60014;SDS011;45867;52.480;6.056;2023-04-15T07:35:20;10.20;;;6.47;;
60014;SDS011;45867;52.480;6.056;2023-04-15T07:37:45;10.85;;;6.90;;
60014;SDS011;45867;52.480;6.056;2023-04-15T07:40:11;13.30;;;7.75;;
60014;SDS011;45867;52.480;6.056;2023-04-15T07:42:38;11.23;;;7.15;;
60014;SDS011;45867;52.480;6.056;2023-04-15T07:45:05;10.35;;;6.88;;
60014;SDS011;45867;52.480;6.056;2023-04-15T07:47:30;13.88;;;6.60;;
60014;SDS011;45867;52.480;6.056;2023-04-15T07:49:56;11.70;;;7.05;;
60014;SDS011;45867;52.480;6.056;2023-04-15T07:52:21;9.98;;;6.80;;
60014;SDS011;45867;52.480;6.056;2023-04-15T07:54:47;10.82;;;6.80;;
60014;SDS011;45867;52.480;6.056;2023-04-15T07:57:12;12.75;;;6.93;;
60014;SDS011;45867;52.480;6.056;2023-04-15T07:59:37;11.95;;;6.40;;
60014;SDS011;45867;52.480;6.056;2023-04-15T08:02:06;10.90;;;6.00;;
60014;SDS011;45867;52.480;6.056;2023-04-15T08:04:32;10.85;;;6.32;;
60014;SDS011;45867;52.480;6.056;2023-04-15T08:06:57;9.98;;;6.25;;
60014;SDS011;45867;52.480;6.056;2023-04-15T08:09:23;10.75;;;6.30;;
60014;SDS011;45867;52.480;6.056;2023-04-15T08:11:48;8.77;;;5.82;;
60014;SDS011;45867;52.480;6.056;2023-04-15T08:14:14;9.02;;;5.80;;
60014;SDS011;45867;52.480;6.056;2023-04-15T08:16:40;12.07;;;7.15;;
60014;SDS011;45867;52.480;6.056;2023-04-15T08:19:06;10.52;;;5.53;;
60014;SDS011;45867;52.480;6.056;2023-04-15T08:21:35;8.65;;;6.07;;
60014;SDS011;45867;52.480;6.056;2023-04-15T08:24:00;10.63;;;5.55;;
60014;SDS011;45867;52.480;6.056;2023-04-15T08:26:25;9.50;;;5.88;;
60014;SDS011;45867;52.480;6.056;2023-04-15T08:28:51;8.43;;;5.60;;
60014;SDS011;45867;52.480;6.056;2023-04-15T08:31:17;10.18;;;5.97;;
60014;SDS011;45867;52.480;6.056;2023-04-15T08:33:43;10.57;;;5.70;;
60014;SDS011;45867;52.480;6.056;2023-04-15T08:36:08;9.73;;;5.97;;
60014;SDS011;45867;52.480;6.056;2023-04-15T08:38:34;9.70;;;5.65;;
60014;SDS011;45867;52.480;6.056;2023-04-15T08:41:02;7.43;;;4.93;;
60014;SDS011;45867;52.480;6.056;2023-04-15T08:43:34;12.43;;;5.05;;
60014;SDS011;45867;52.480;6.056;2023-04-15T08:46:08;7.70;;;4.93;;
60014;SDS011;45867;52.480;6.056;2023-04-15T08:48:35;8.07;;;4.88;;
60014;SDS011;45867;52.480;6.056;2023-04-15T08:51:04;7.28;;;5.40;;
60014;SDS011;45867;52.480;6.056;2023-04-15T08:53:30;9.93;;;5.57;;
60014;SDS011;45867;52.480;6.056;2023-04-15T08:55:56;9.98;;;5.40;;
60014;SDS011;45867;52.480;6.056;2023-04-15T08:58:28;10.68;;;5.47;;
60014;SDS011;45867;52.480;6.056;2023-04-15T09:00:55;8.65;;;5.35;;
60014;SDS011;45867;52.480;6.056;2023-04-15T09:03:21;8.23;;;5.40;;
60014;SDS011;45867;52.480;6.056;2023-04-15T09:05:47;7.55;;;4.65;;
60014;SDS011;45867;52.480;6.056;2023-04-15T09:08:14;11.93;;;5.00;;
60014;SDS011;45867;52.480;6.056;2023-04-15T09:10:40;8.10;;;4.57;;
60014;SDS011;45867;52.480;6.056;2023-04-15T09:13:05;9.82;;;5.07;;
60014;SDS011;45867;52.480;6.056;2023-04-15T09:15:30;9.25;;;5.10;;
60014;SDS011;45867;52.480;6.056;2023-04-15T09:17:57;9.48;;;4.95;;
60014;SDS011;45867;52.480;6.056;2023-04-15T09:20:25;7.68;;;4.72;;
60014;SDS011;45867;52.480;6.056;2023-04-15T09:22:51;7.78;;;5.07;;
60014;SDS011;45867;52.480;6.056;2023-04-15T09:27:54;7.18;;;4.60;;
60014;SDS011;45867;52.480;6.056;2023-04-15T09:30:24;7.18;;;4.40;;
60014;SDS011;45867;52.480;6.056;2023-04-15T09:32:53;6.68;;;4.00;;
60014;SDS011;45867;52.480;6.056;2023-04-15T09:35:32;7.35;;;4.18;;
60014;SDS011;45867;52.480;6.056;2023-04-15T09:38:03;6.10;;;4.00;;
60014;SDS011;45867;52.480;6.056;2023-04-15T09:40:36;7.15;;;3.88;;
60014;SDS011;45867;52.480;6.056;2023-04-15T09:43:03;11.98;;;4.70;;
60014;SDS011;45867;52.480;6.056;2023-04-15T09:45:30;6.18;;;3.70;;
60014;SDS011;45867;52.480;6.056;2023-04-15T09:47:57;9.05;;;3.72;;
60014;SDS011;45867;52.480;6.056;2023-04-15T09:50:26;7.60;;;3.63;;
60014;SDS011;45867;52.480;6.056;2023-04-15T09:52:53;5.25;;;3.70;;
60014;SDS011;45867;52.480;6.056;2023-04-15T09:55:18;7.00;;;3.63;;
60014;SDS011;45867;52.480;6.056;2023-04-15T09:57:44;8.10;;;3.88;;
60014;SDS011;45867;52.480;6.056;2023-04-15T10:00:11;6.40;;;3.90;;
60014;SDS011;45867;52.480;6.056;2023-04-15T10:02:38;5.97;;;3.92;;
60014;SDS011;45867;52.480;6.056;2023-04-15T10:05:04;6.72;;;3.97;;
60014;SDS011;45867;52.480;6.056;2023-04-15T10:07:31;6.30;;;4.05;;
60014;SDS011;45867;52.480;6.056;2023-04-15T10:09:57;5.43;;;3.50;;
60014;SDS011;45867;52.480;6.056;2023-04-15T10:12:26;6.10;;;3.60;;
60014;SDS011;45867;52.480;6.056;2023-04-15T10:14:55;6.80;;;3.50;;
60014;SDS011;45867;52.480;6.056;2023-04-15T10:17:23;6.53;;;3.53;;
60014;SDS011;45867;52.480;6.056;2023-04-15T10:19:58;7.18;;;3.08;;
60014;SDS011;45867;52.480;6.056;2023-04-15T10:22:26;5.15;;;3.20;;
60014;SDS011;45867;52.480;6.056;2023-04-15T10:24:52;5.28;;;3.28;;
60014;SDS011;45867;52.480;6.056;2023-04-15T10:27:18;5.63;;;3.40;;
60014;SDS011;45867;52.480;6.056;2023-04-15T10:29:47;5.32;;;3.22;;
60014;SDS011;45867;52.480;6.056;2023-04-15T10:32:13;6.18;;;3.17;;
60014;SDS011;45867;52.480;6.056;2023-04-15T10:34:40;10.18;;;3.40;;
60014;SDS011;45867;52.480;6.056;2023-04-15T10:37:08;6.53;;;3.30;;
60014;SDS011;45867;52.480;6.056;2023-04-15T10:44:34;4.65;;;2.90;;
60014;SDS011;45867;52.480;6.056;2023-04-15T10:47:15;6.82;;;3.13;;
60014;SDS011;45867;52.480;6.056;2023-04-15T10:52:15;4.40;;;2.67;;
60014;SDS011;45867;52.480;6.056;2023-04-15T10:57:38;5.22;;;2.85;;
60014;SDS011;45867;52.480;6.056;2023-04-15T11:05:18;8.70;;;2.60;;
60014;SDS011;45867;52.480;6.056;2023-04-15T11:07:54;6.22;;;2.60;;
60014;SDS011;45867;52.480;6.056;2023-04-15T11:17:55;5.95;;;2.40;;
60014;SDS011;45867;52.480;6.056;2023-04-15T11:20:21;6.85;;;2.15;;
60014;SDS011;45867;52.480;6.056;2023-04-15T11:22:47;7.68;;;2.50;;
60014;SDS011;45867;52.480;6.056;2023-04-15T11:25:24;4.63;;;2.50;;
60014;SDS011;45867;52.480;6.056;2023-04-15T11:27:51;6.68;;;2.28;;
60014;SDS011;45867;52.480;6.056;2023-04-15T11:30:21;5.55;;;2.25;;
60014;SDS011;45867;52.480;6.056;2023-04-15T11:32:48;4.35;;;2.50;;
60014;SDS011;45867;52.480;6.056;2023-04-15T11:35:18;4.45;;;2.30;;
60014;SDS011;45867;52.480;6.056;2023-04-15T11:37:43;5.72;;;2.28;;
60014;SDS011;45867;52.480;6.056;2023-04-15T11:40:10;5.63;;;2.60;;
60014;SDS011;45867;52.480;6.056;2023-04-15T11:42:36;5.97;;;2.53;;
60014;SDS011;45867;52.480;6.056;2023-04-15T11:45:07;3.92;;;2.10;;
60014;SDS011;45867;52.480;6.056;2023-04-15T11:47:37;3.60;;;1.73;;
60014;SDS011;45867;52.480;6.056;2023-04-15T11:52:59;3.15;;;2.00;;
60014;SDS011;45867;52.480;6.056;2023-04-15T11:55:27;5.95;;;1.90;;
60014;SDS011;45867;52.480;6.056;2023-04-15T12:00:55;2.70;;;1.70;;
60014;SDS011;45867;52.480;6.056;2023-04-15T12:03:24;3.10;;;1.60;;
60014;SDS011;45867;52.480;6.056;2023-04-15T12:11:51;4.43;;;1.63;;
60014;SDS011;45867;52.480;6.056;2023-04-15T12:16:59;3.20;;;1.60;;
60014;SDS011;45867;52.480;6.056;2023-04-15T12:19:44;5.93;;;2.00;;
60014;SDS011;45867;52.480;6.056;2023-04-15T12:22:10;5.07;;;1.80;;
60014;SDS011;45867;52.480;6.056;2023-04-15T12:24:38;3.65;;;1.75;;
60014;SDS011;45867;52.480;6.056;2023-04-15T12:29:33;4.28;;;1.90;;
60014;SDS011;45867;52.480;6.056;2023-04-15T12:32:10;4.45;;;2.00;;
60014;SDS011;45867;52.480;6.056;2023-04-15T12:34:39;2.75;;;1.67;;
60014;SDS011;45867;52.480;6.056;2023-04-15T12:37:15;5.32;;;1.80;;
60014;SDS011;45867;52.480;6.056;2023-04-15T12:39:41;6.25;;;2.15;;
60014;SDS011;45867;52.480;6.056;2023-04-15T12:42:08;4.00;;;1.98;;
60014;SDS011;45867;52.480;6.056;2023-04-15T12:44:34;2.97;;;1.80;;
60014;SDS011;45867;52.480;6.056;2023-04-15T12:47:00;2.28;;;1.55;;
60014;SDS011;45867;52.480;6.056;2023-04-15T12:49:26;5.78;;;1.98;;
60014;SDS011;45867;52.480;6.056;2023-04-15T12:51:53;3.80;;;2.13;;
60014;SDS011;45867;52.480;6.056;2023-04-15T12:54:19;4.72;;;1.95;;
60014;SDS011;45867;52.480;6.056;2023-04-15T12:56:46;4.35;;;1.95;;
60014;SDS011;45867;52.480;6.056;2023-04-15T12:59:13;6.82;;;1.90;;
60014;SDS011;45867;52.480;6.056;2023-04-15T13:01:39;4.65;;;1.80;;
60014;SDS011;45867;52.480;6.056;2023-04-15T13:04:04;3.05;;;1.98;;
60014;SDS011;45867;52.480;6.056;2023-04-15T13:06:30;7.32;;;2.08;;
60014;SDS011;45867;52.480;6.056;2023-04-15T13:08:57;7.57;;;1.90;;
60014;SDS011;45867;52.480;6.056;2023-04-15T13:11:23;4.47;;;2.40;;
60014;SDS011;45867;52.480;6.056;2023-04-15T13:13:50;4.07;;;2.20;;
60014;SDS011;45867;52.480;6.056;2023-04-15T13:16:16;3.65;;;2.20;;
60014;SDS011;45867;52.480;6.056;2023-04-15T13:18:42;6.60;;;2.45;;
60014;SDS011;45867;52.480;6.056;2023-04-15T13:21:07;5.78;;;2.10;;
60014;SDS011;45867;52.480;6.056;2023-04-15T13:23:34;7.20;;;2.47;;
60014;SDS011;45867;52.480;6.056;2023-04-15T13:26:00;5.25;;;2.28;;
60014;SDS011;45867;52.480;6.056;2023-04-15T13:28:25;5.55;;;2.22;;
60014;SDS011;45867;52.480;6.056;2023-04-15T13:30:51;8.05;;;2.47;;
60014;SDS011;45867;52.480;6.056;2023-04-15T13:33:16;6.55;;;3.30;;
60014;SDS011;45867;52.480;6.056;2023-04-15T13:35:42;12.32;;;3.45;;
60014;SDS011;45867;52.480;6.056;2023-04-15T13:38:07;10.30;;;3.30;;
60014;SDS011;45867;52.480;6.056;2023-04-15T13:40:33;13.75;;;3.13;;
60014;SDS011;45867;52.480;6.056;2023-04-15T13:42:58;11.63;;;4.22;;
60014;SDS011;45867;52.480;6.056;2023-04-15T13:45:24;5.70;;;2.67;;
60014;SDS011;45867;52.480;6.056;2023-04-15T13:47:50;13.65;;;2.72;;
60014;SDS011;45867;52.480;6.056;2023-04-15T13:50:16;4.82;;;2.58;;
60014;SDS011;45867;52.480;6.056;2023-04-15T13:52:41;6.07;;;2.53;;
60014;SDS011;45867;52.480;6.056;2023-04-15T13:55:06;6.30;;;2.67;;
60014;SDS011;45867;52.480;6.056;2023-04-15T13:57:32;8.70;;;2.20;;
60014;SDS011;45867;52.480;6.056;2023-04-15T13:59:58;8.00;;;2.45;;
60014;SDS011;45867;52.480;6.056;2023-04-15T14:02:23;10.38;;;2.53;;
60014;SDS011;45867;52.480;6.056;2023-04-15T14:04:49;4.95;;;2.47;;
60014;SDS011;45867;52.480;6.056;2023-04-15T14:07:14;8.55;;;3.42;;
60014;SDS011;45867;52.480;6.056;2023-04-15T14:09:40;18.05;;;3.97;;
60014;SDS011;45867;52.480;6.056;2023-04-15T14:12:05;6.90;;;2.80;;
60014;SDS011;45867;52.480;6.056;2023-04-15T14:14:30;7.47;;;2.50;;
60014;SDS011;45867;52.480;6.056;2023-04-15T14:16:56;7.47;;;2.15;;
60014;SDS011;45867;52.480;6.056;2023-04-15T14:19:22;11.32;;;2.83;;
60014;SDS011;45867;52.480;6.056;2023-04-15T14:21:48;6.07;;;2.30;;
60014;SDS011;45867;52.480;6.056;2023-04-15T14:24:13;7.97;;;2.65;;
60014;SDS011;45867;52.480;6.056;2023-04-15T14:26:38;7.35;;;2.28;;
60014;SDS011;45867;52.480;6.056;2023-04-15T14:29:04;10.88;;;2.40;;
60014;SDS011;45867;52.480;6.056;2023-04-15T14:31:31;11.23;;;2.25;;
60014;SDS011;45867;52.480;6.056;2023-04-15T14:33:57;6.03;;;2.15;;
60014;SDS011;45867;52.480;6.056;2023-04-15T14:36:22;6.82;;;3.03;;
60014;SDS011;45867;52.480;6.056;2023-04-15T14:38:47;7.95;;;2.58;;
60014;SDS011;45867;52.480;6.056;2023-04-15T14:41:12;8.82;;;2.97;;
60014;SDS011;45867;52.480;6.056;2023-04-15T14:43:38;5.15;;;2.30;;
60014;SDS011;45867;52.480;6.056;2023-04-15T14:46:03;8.48;;;2.20;;
60014;SDS011;45867;52.480;6.056;2023-04-15T14:48:29;10.55;;;2.35;;
60014;SDS011;45867;52.480;6.056;2023-04-15T14:50:55;7.43;;;2.15;;
60014;SDS011;45867;52.480;6.056;2023-04-15T14:53:20;10.32;;;2.70;;
60014;SDS011;45867;52.480;6.056;2023-04-15T14:55:46;13.63;;;2.13;;
60014;SDS011;45867;52.480;6.056;2023-04-15T14:58:11;5.05;;;1.95;;
60014;SDS011;45867;52.480;6.056;2023-04-15T15:00:37;10.68;;;3.05;;
60014;SDS011;45867;52.480;6.056;2023-04-15T15:03:05;8.52;;;2.20;;
60014;SDS011;45867;52.480;6.056;2023-04-15T15:05:36;12.13;;;2.33;;
60014;SDS011;45867;52.480;6.056;2023-04-15T15:08:07;8.00;;;3.90;;
60014;SDS011;45867;52.480;6.056;2023-04-15T15:10:33;9.75;;;2.42;;
60014;SDS011;45867;52.480;6.056;2023-04-15T15:13:07;15.32;;;2.70;;
60014;SDS011;45867;52.480;6.056;2023-04-15T15:15:33;9.63;;;1.95;;